createdAt,value
2022-08-28T00:00:16.704Z,97174.34
2022-08-28T00:02:47.683Z,97170.44
2022-08-28T00:05:19.456Z,97170.63
2022-08-28T00:07:48.092Z,97170.03
2022-08-28T00:10:19.858Z,97175.92
2022-08-28T00:12:51.923Z,97170.83
2022-08-28T00:15:24.861Z,97173.17
2022-08-28T00:17:52.999Z,97168.26
2022-08-28T00:20:21.638Z,97169.06
2022-08-28T00:22:50.274Z,97170.20
2022-08-28T00:25:22.404Z,97167.45
2022-08-28T00:27:52.902Z,97168.61
2022-08-28T00:30:27.805Z,97174.86
2022-08-28T00:32:59.484Z,97179.19
2022-08-28T00:35:27.947Z,97175.23
2022-08-28T00:37:57.046Z,97183.08
2022-08-28T00:40:32.477Z,97178.53
2022-08-28T00:43:00.482Z,97173.23
2022-08-28T00:45:29.514Z,97178.30
2022-08-28T00:47:57.921Z,97174.95
2022-08-28T00:50:32.435Z,97176.91
2022-08-28T00:53:01.240Z,97178.06
2022-08-28T00:55:29.952Z,97168.81
2022-08-28T00:58:00.292Z,97169.19
2022-08-28T01:00:35.563Z,97171.92
2022-08-28T01:03:05.198Z,97171.12
2022-08-28T01:05:35.696Z,97173.05
2022-08-28T01:08:03.893Z,97168.09
2022-08-28T01:10:34.431Z,97170.64
2022-08-28T01:13:03.614Z,97168.46
2022-08-28T01:15:37.668Z,97167.06
2022-08-28T01:18:10.035Z,97164.30
2022-08-28T01:20:43.120Z,97165.09
2022-08-28T01:23:46.270Z,97162.69
2022-08-28T01:26:14.012Z,97174.03
2022-08-28T01:28:41.814Z,97166.56
2022-08-28T01:31:12.934Z,97167.71
2022-08-28T01:33:42.813Z,97161.05
2022-08-28T01:36:12.199Z,97164.19
2022-08-28T01:38:41.754Z,97159.15
2022-08-28T01:41:11.028Z,97161.12
2022-08-28T01:43:41.007Z,97165.09
2022-08-28T01:46:11.151Z,97165.33
2022-08-28T01:48:43.105Z,97170.66
2022-08-28T01:51:11.942Z,97171.91
2022-08-28T01:53:41.085Z,97172.13
2022-08-28T01:56:13.615Z,97177.03
2022-08-28T01:58:41.702Z,97169.78
2022-08-28T02:01:13.310Z,97173.91
2022-08-28T02:03:44.759Z,97165.69
2022-08-28T02:06:21.687Z,97170.19
2022-08-28T02:08:54.995Z,97169.99
2022-08-28T02:11:24.818Z,97171.17
2022-08-28T02:13:54.238Z,97171.55
2022-08-28T02:16:26.865Z,97177.41
2022-08-28T02:19:03.327Z,97173.48
2022-08-28T02:21:31.145Z,97176.22
2022-08-28T02:23:59.112Z,97178.17
2022-08-28T02:26:27.943Z,97171.91
2022-08-28T02:28:55.767Z,97170.12
2022-08-28T02:31:23.625Z,97173.45
2022-08-28T02:33:51.245Z,97183.19
2022-08-28T02:36:19.101Z,97178.67
2022-08-28T02:38:48.516Z,97171.41
2022-08-28T02:41:16.908Z,97171.58
2022-08-28T02:43:44.946Z,97174.09
2022-08-28T02:46:13.065Z,97177.21
2022-08-28T02:48:41.142Z,97173.46
2022-08-28T02:51:13.185Z,97181.30
2022-08-28T02:53:42.165Z,97178.92
2022-08-28T02:56:11.621Z,97180.69
2022-08-28T02:58:40.242Z,97181.44
2022-08-28T03:01:10.749Z,97183.80
2022-08-28T03:03:41.425Z,97181.39
2022-08-28T03:06:14.489Z,97177.48
2022-08-28T03:08:43.252Z,97181.36
2022-08-28T03:11:12.088Z,97182.31
2022-08-28T03:13:39.756Z,97181.14
2022-08-28T03:16:07.920Z,97189.92
2022-08-28T03:18:35.574Z,97193.08
2022-08-28T03:21:04.191Z,97183.29
2022-08-28T03:23:32.341Z,97189.59
2022-08-28T03:26:05.015Z,97190.00
2022-08-28T03:28:41.491Z,97197.47
2022-08-28T03:31:13.472Z,97195.31
2022-08-28T03:33:42.750Z,97200.21
2022-08-28T03:36:14.333Z,97199.41
2022-08-28T03:38:42.117Z,97213.11
2022-08-28T03:41:12.601Z,97208.41
2022-08-28T03:43:40.669Z,97215.23
2022-08-28T03:46:15.177Z,97212.66
2022-08-28T03:48:44.922Z,97213.44
2022-08-28T03:51:17.756Z,97211.25
2022-08-28T03:53:47.005Z,97215.92
2022-08-28T03:56:21.174Z,97221.95
2022-08-28T03:58:51.926Z,97218.79
2022-08-28T04:01:20.985Z,97225.83
2022-08-28T04:03:48.857Z,97225.99
2022-08-28T04:06:16.686Z,97236.33
2022-08-28T04:08:44.713Z,97234.34
2022-08-28T04:11:12.779Z,97233.75
2022-08-28T04:13:41.430Z,97236.06
2022-08-28T04:16:13.388Z,97238.41
2022-08-28T04:18:42.734Z,97237.23
2022-08-28T04:21:15.792Z,97235.67
2022-08-28T04:23:45.614Z,97241.54
2022-08-28T04:26:18.083Z,97235.31
2022-08-28T04:28:46.868Z,97243.38
2022-08-28T04:31:15.461Z,97241.06
2022-08-28T04:33:43.688Z,97242.63
2022-08-28T04:36:16.214Z,97240.31
2022-08-28T04:38:44.269Z,97244.23
2022-08-28T04:41:15.305Z,97242.30
2022-08-28T04:43:43.989Z,97244.33
2022-08-28T04:46:14.601Z,97246.36
2022-08-28T04:48:42.905Z,97238.95
2022-08-28T04:51:14.540Z,97245.11
2022-08-28T04:53:44.373Z,97241.64
2022-08-28T04:56:14.266Z,97239.95
2022-08-28T04:58:43.377Z,97244.95
2022-08-28T05:01:18.269Z,97244.83
2022-08-28T05:03:47.800Z,97244.48
2022-08-28T05:06:16.640Z,97244.91
2022-08-28T05:08:44.375Z,97247.09
2022-08-28T05:11:21.281Z,97246.33
2022-08-28T05:13:46.168Z,97251.44
2022-08-28T05:16:14.388Z,97251.27
2022-08-28T05:18:42.726Z,97255.95
2022-08-28T05:21:19.154Z,97254.41
2022-08-28T05:23:54.081Z,97256.78
2022-08-28T05:26:22.847Z,97250.71
2022-08-28T05:28:54.962Z,97253.30
2022-08-28T05:31:24.671Z,97255.25
2022-08-28T05:33:53.224Z,97259.97
2022-08-28T05:36:23.414Z,97255.47
2022-08-28T05:38:56.696Z,97254.89
2022-08-28T05:41:29.651Z,97260.81
2022-08-28T05:44:01.412Z,97256.93
2022-08-28T05:46:29.859Z,97254.20
2022-08-28T05:48:59.722Z,97258.13
2022-08-28T05:51:28.349Z,97259.33
2022-08-28T05:53:57.195Z,97259.32
2022-08-28T05:56:29.174Z,97263.65
2022-08-28T05:58:59.267Z,97262.70
2022-08-28T06:01:34.437Z,97269.37
2022-08-28T06:04:10.583Z,97263.09
2022-08-28T06:06:40.598Z,97269.58
2022-08-28T06:09:16.359Z,97264.46
2022-08-28T06:11:46.105Z,97266.43
2022-08-28T06:14:18.104Z,97263.28
2022-08-28T06:16:54.689Z,97269.41
2022-08-28T06:19:25.266Z,97271.16
2022-08-28T06:21:59.218Z,97266.84
2022-08-28T06:24:28.788Z,97265.66
2022-08-28T06:26:58.674Z,97265.23
2022-08-28T06:29:28.672Z,97267.39
2022-08-28T06:32:01.366Z,97256.34
2022-08-28T06:34:29.572Z,97257.50
2022-08-28T06:36:57.309Z,97261.98
2022-08-28T06:39:25.214Z,97257.41
2022-08-28T06:41:53.319Z,97263.47
2022-08-28T06:44:22.273Z,97261.44
2022-08-28T06:46:53.207Z,97260.80
2022-08-28T06:49:21.346Z,97258.95
2022-08-28T06:51:49.268Z,97255.48
2022-08-28T06:54:21.772Z,97255.22
2022-08-28T06:56:46.701Z,97251.58
2022-08-28T06:59:14.629Z,97256.61
2022-08-28T07:01:42.247Z,97253.38
2022-08-28T07:04:13.902Z,97262.32
2022-08-28T07:06:53.020Z,97258.20
2022-08-28T07:09:18.403Z,97258.50
2022-08-28T07:11:46.310Z,97251.67
2022-08-28T07:14:13.941Z,97257.05
2022-08-28T07:16:41.545Z,97253.14
2022-08-28T07:19:11.722Z,97248.67
2022-08-28T07:21:43.446Z,97245.18
2022-08-28T07:24:14.091Z,97250.70
2022-08-28T07:26:43.108Z,97244.42
2022-08-28T07:29:11.772Z,97246.36
2022-08-28T07:31:48.659Z,97246.94
2022-08-28T07:34:19.552Z,97247.36
2022-08-28T07:36:47.551Z,97246.47
2022-08-28T07:39:15.813Z,97250.31
2022-08-28T07:41:46.018Z,97248.41
2022-08-28T07:44:33.690Z,97247.69
2022-08-28T07:47:05.264Z,97252.45
2022-08-28T07:49:34.796Z,97245.47
2022-08-28T07:52:03.180Z,97255.45
2022-08-28T07:54:31.248Z,97249.62
2022-08-28T07:56:59.175Z,97253.70
2022-08-28T07:59:29.568Z,97258.06
2022-08-28T08:01:56.501Z,97255.88
2022-08-28T08:04:25.460Z,97254.40
2022-08-28T08:06:57.866Z,97256.33
2022-08-28T08:09:23.258Z,97258.25
2022-08-28T08:11:51.872Z,97257.37
2022-08-28T08:14:19.576Z,97260.84
2022-08-28T08:16:47.818Z,97261.05
2022-08-28T08:19:16.926Z,97265.44
2022-08-28T08:21:53.308Z,97264.80
2022-08-28T08:24:24.470Z,97261.06
2022-08-28T08:26:59.478Z,97266.95
2022-08-28T08:29:25.179Z,97266.88
2022-08-28T08:32:06.570Z,97267.34
2022-08-28T08:34:40.843Z,97270.80
2022-08-28T08:37:09.974Z,97262.75
2022-08-28T08:39:37.862Z,97268.55
2022-08-28T08:42:10.880Z,97268.21
2022-08-28T08:44:46.437Z,97260.39
2022-08-28T08:47:22.224Z,97256.90
2022-08-28T08:49:57.535Z,97257.80
2022-08-28T08:52:53.634Z,97264.04
2022-08-28T08:55:33.779Z,97258.81
2022-08-28T08:58:13.307Z,97258.48
2022-08-28T09:00:58.721Z,97264.36
2022-08-28T09:03:48.512Z,97258.88
2022-08-28T09:06:31.074Z,97261.50
2022-08-28T09:09:06.907Z,97262.22
2022-08-28T09:11:50.544Z,97266.50
2022-08-28T09:15:00.021Z,97259.33
2022-08-28T09:17:32.852Z,97265.50
2022-08-28T09:20:00.518Z,97263.48
2022-08-28T09:22:28.408Z,97259.92
2022-08-28T09:24:56.115Z,97264.69
2022-08-28T09:27:34.446Z,97269.30
2022-08-28T09:30:10.267Z,97270.19
2022-08-28T09:32:43.869Z,97272.58
2022-08-28T09:35:27.796Z,97271.78
2022-08-28T09:38:27.872Z,97261.59
2022-08-28T09:41:29.638Z,97269.52
2022-08-28T09:43:57.488Z,97265.89
2022-08-28T09:46:31.233Z,97264.00
2022-08-28T09:49:12.806Z,97264.83
2022-08-28T09:51:41.288Z,97262.72
2022-08-28T09:54:19.803Z,97261.86
2022-08-28T09:56:49.426Z,97266.73
2022-08-28T09:59:20.680Z,97264.64
2022-08-28T10:02:12.713Z,97258.63
2022-08-28T10:04:54.442Z,97258.65
2022-08-28T10:07:37.191Z,97259.13
2022-08-28T10:10:32.207Z,97257.41
2022-08-28T10:13:14.171Z,97254.95
2022-08-28T10:16:13.944Z,97257.00
2022-08-28T10:19:08.758Z,97244.28
2022-08-28T10:21:50.735Z,97248.17
2022-08-28T10:24:41.072Z,97243.52
2022-08-28T10:27:33.633Z,97239.30
2022-08-28T10:30:13.396Z,97228.11
2022-08-28T10:33:14.538Z,97235.43
2022-08-28T10:35:52.950Z,97228.72
2022-08-28T10:38:51.190Z,97222.02
2022-08-28T10:41:30.872Z,97222.64
2022-08-28T10:44:01.941Z,97220.17
2022-08-28T10:46:41.082Z,97219.23
2022-08-28T10:49:14.235Z,97217.36
2022-08-28T10:51:52.802Z,97217.14
2022-08-28T10:54:33.257Z,97220.52
2022-08-28T10:57:35.006Z,97216.89
2022-08-28T11:00:11.822Z,97223.66
2022-08-28T11:02:44.789Z,97216.02
2022-08-28T11:05:13.079Z,97218.66
2022-08-28T11:07:46.169Z,97220.66
2022-08-28T11:10:37.881Z,97218.01
2022-08-28T11:13:09.801Z,97219.36
2022-08-28T11:15:45.586Z,97214.19
2022-08-28T11:18:44.803Z,97211.50
2022-08-28T11:21:39.189Z,97209.38
2022-08-28T11:24:33.133Z,97207.91
2022-08-28T11:27:28.977Z,97201.95
2022-08-28T11:30:11.260Z,97202.95
2022-08-28T11:32:53.318Z,97201.15
2022-08-28T11:35:32.361Z,97207.03
2022-08-28T11:37:59.834Z,97199.30
2022-08-28T11:40:37.927Z,97197.02
2022-08-28T11:43:20.416Z,97193.63
2022-08-28T11:45:59.754Z,97197.44
2022-08-28T11:48:42.838Z,97199.70
2022-08-28T11:51:38.358Z,97196.72
2022-08-28T11:54:29.472Z,97200.20
2022-08-28T11:57:25.817Z,97190.52
2022-08-28T12:00:01.943Z,97195.59
2022-08-28T12:02:48.419Z,97192.00
2022-08-28T12:05:33.516Z,97192.53
2022-08-28T12:08:03.961Z,97195.98
2022-08-28T12:10:41.649Z,97199.42
2022-08-28T12:13:09.689Z,97184.23
2022-08-28T12:15:40.965Z,97187.21
2022-08-28T12:18:17.233Z,97185.72
2022-08-28T12:21:01.018Z,97188.45
2022-08-28T12:24:05.373Z,97186.74
2022-08-28T12:26:41.221Z,97183.87
2022-08-28T12:29:29.413Z,97181.42
2022-08-28T12:32:28.022Z,97185.64
2022-08-28T12:35:04.292Z,97181.23
2022-08-28T12:37:58.578Z,97177.98
2022-08-28T12:40:44.957Z,97173.27
2022-08-28T12:43:16.905Z,97173.98
2022-08-28T12:45:57.640Z,97168.77
2022-08-28T12:48:33.062Z,97166.22
2022-08-28T12:51:08.769Z,97164.13
2022-08-28T12:53:43.902Z,97166.50
2022-08-28T12:56:15.531Z,97155.41
2022-08-28T12:58:44.829Z,97158.22
2022-08-28T13:01:31.952Z,97159.48
2022-08-28T13:04:08.213Z,97161.19
2022-08-28T13:06:39.108Z,97146.03
2022-08-28T13:09:19.946Z,97155.03
2022-08-28T13:11:50.987Z,97152.80
2022-08-28T13:14:41.856Z,97146.67
2022-08-28T13:17:12.224Z,97151.62
2022-08-28T13:19:42.073Z,97147.22
2022-08-28T13:22:40.475Z,97149.97
2022-08-28T13:25:09.290Z,97153.46
2022-08-28T13:27:38.494Z,97142.70
2022-08-28T13:30:20.090Z,97152.91
2022-08-28T13:33:04.674Z,97153.43
2022-08-28T13:35:39.453Z,97159.86
2022-08-28T13:38:11.873Z,97157.22
2022-08-28T13:40:58.071Z,97158.77
2022-08-28T13:43:26.703Z,97161.09
2022-08-28T13:45:54.845Z,97165.67
2022-08-28T13:48:26.692Z,97166.48
2022-08-28T13:51:03.120Z,97160.38
2022-08-28T13:53:32.523Z,97161.36
2022-08-28T13:56:00.905Z,97160.27
2022-08-28T13:58:28.501Z,97166.02
2022-08-28T14:00:56.243Z,97165.44
2022-08-28T14:03:37.257Z,97163.59
2022-08-28T14:06:13.683Z,97161.46
2022-08-28T14:08:43.137Z,97159.73
2022-08-28T14:11:13.804Z,97158.34
2022-08-28T14:13:47.719Z,97161.66
2022-08-28T14:16:14.963Z,97161.80
2022-08-28T14:18:42.805Z,97154.00
2022-08-28T14:21:10.507Z,97152.86
2022-08-28T14:23:38.162Z,97151.41
2022-08-28T14:26:06.115Z,97144.53
2022-08-28T14:28:36.237Z,97146.08
2022-08-28T14:31:09.921Z,97147.64
2022-08-28T14:33:37.018Z,97146.70
2022-08-28T14:36:05.378Z,97139.86
2022-08-28T14:38:33.028Z,97140.19
2022-08-28T14:41:01.674Z,97142.03
2022-08-28T14:43:31.112Z,97136.42
2022-08-28T14:45:59.887Z,97140.19
2022-08-28T14:48:27.667Z,97140.23
2022-08-28T14:50:55.335Z,97142.84
2022-08-28T14:53:22.951Z,97142.84
2022-08-28T14:55:50.888Z,97133.31
2022-08-28T14:58:19.936Z,97146.73
2022-08-28T15:00:50.084Z,97142.31
2022-08-28T15:03:19.298Z,97140.45
2022-08-28T15:05:46.989Z,97140.45
2022-08-28T15:08:17.406Z,97139.23
2022-08-28T15:10:45.504Z,97140.91
2022-08-28T15:13:13.470Z,97139.05
2022-08-28T15:15:42.640Z,97126.59
2022-08-28T15:18:11.772Z,97127.50
2022-08-28T15:20:44.301Z,97125.82
2022-08-28T15:23:14.544Z,97124.18
2022-08-28T15:25:42.729Z,97122.50
2022-08-28T15:28:11.092Z,97120.97
2022-08-28T15:30:39.305Z,97121.56
2022-08-28T15:33:08.735Z,97124.14
2022-08-28T15:35:36.799Z,97121.33
2022-08-28T15:38:05.517Z,97134.09
2022-08-28T15:40:52.319Z,97122.73
2022-08-28T15:43:19.975Z,97124.04
2022-08-28T15:45:47.789Z,97120.97
2022-08-28T15:48:15.505Z,97120.48
2022-08-28T15:50:43.368Z,97123.95
2022-08-28T15:53:12.084Z,97123.36
2022-08-28T15:55:40.057Z,97124.45
2022-08-28T15:58:14.237Z,97125.26
2022-08-28T16:00:38.841Z,97127.47
2022-08-28T16:03:06.750Z,97117.23
2022-08-28T16:05:36.137Z,97128.27
2022-08-28T16:08:05.698Z,97126.48
2022-08-28T16:10:33.446Z,97125.60
2022-08-28T16:13:02.916Z,97128.46
2022-08-28T16:15:30.813Z,97125.97
2022-08-28T16:17:58.658Z,97128.37
2022-08-28T16:20:26.123Z,97126.84
2022-08-28T16:22:53.973Z,97124.88
2022-08-28T16:25:21.761Z,97123.69
2022-08-28T16:27:49.342Z,97123.38
2022-08-28T16:30:18.566Z,97128.09
2022-08-28T16:32:47.684Z,97124.84
2022-08-28T16:35:16.202Z,97131.07
2022-08-28T16:37:44.324Z,97131.69
2022-08-28T16:40:14.751Z,97133.84
2022-08-28T16:42:43.354Z,97130.11
2022-08-28T16:45:12.982Z,97124.02
2022-08-28T16:47:40.688Z,97127.22
2022-08-28T16:50:11.998Z,97126.23
2022-08-28T16:52:39.947Z,97127.22
2022-08-28T16:55:09.990Z,97135.64
2022-08-28T16:57:37.963Z,97132.91
2022-08-28T17:00:12.102Z,97136.61
2022-08-28T17:02:42.272Z,97140.64
2022-08-28T17:05:13.638Z,97138.50
2022-08-28T17:07:41.324Z,97143.70
2022-08-28T17:10:11.877Z,97140.46
2022-08-28T17:12:40.905Z,97147.72
2022-08-28T17:15:09.988Z,97151.87
2022-08-28T17:17:40.414Z,97151.64
2022-08-28T17:20:12.132Z,97161.80
2022-08-28T17:22:40.911Z,97159.63
2022-08-28T17:25:12.669Z,97168.99
2022-08-28T17:27:41.767Z,97165.64
2022-08-28T17:30:11.562Z,97169.88
2022-08-28T17:32:40.222Z,97181.56
2022-08-28T17:35:08.648Z,97186.62
2022-08-28T17:37:40.240Z,97196.56
2022-08-28T17:40:12.663Z,97200.02
2022-08-28T17:42:41.181Z,97209.55
2022-08-28T17:45:09.636Z,97210.94
2022-08-28T17:47:37.331Z,97222.04
2022-08-28T17:50:05.751Z,97224.48
2022-08-28T17:52:33.798Z,97232.63
2022-08-28T17:55:02.389Z,97232.78
2022-08-28T17:57:30.545Z,97234.13
2022-08-28T18:00:00.379Z,97239.82
2022-08-28T18:02:28.709Z,97245.71
2022-08-28T18:04:56.587Z,97241.53
2022-08-28T18:07:24.374Z,97237.28
2022-08-28T18:09:52.101Z,97251.02
2022-08-28T18:12:19.830Z,97246.83
2022-08-28T18:14:47.681Z,97252.88
2022-08-28T18:17:15.954Z,97252.06
2022-08-28T18:19:43.809Z,97255.58
2022-08-28T18:22:13.122Z,97256.89
2022-08-28T18:24:41.362Z,97261.38
2022-08-28T18:27:09.132Z,97256.41
2022-08-28T18:29:39.041Z,97257.30
2022-08-28T18:32:07.398Z,97266.95
2022-08-28T18:34:36.350Z,97276.93
2022-08-28T18:37:04.565Z,97266.17
2022-08-28T18:39:34.577Z,97264.30
2022-08-28T18:42:02.835Z,97266.78
2022-08-28T18:44:31.798Z,97265.52
2022-08-28T18:46:59.630Z,97263.23
2022-08-28T18:49:28.084Z,97269.56
2022-08-28T18:51:56.409Z,97273.17
2022-08-28T18:54:24.084Z,97270.66
2022-08-28T18:56:57.418Z,97277.98
2022-08-28T18:59:24.003Z,97278.18
2022-08-28T19:01:51.830Z,97280.40
2022-08-28T19:04:19.594Z,97280.45
2022-08-28T19:06:47.216Z,97281.28
2022-08-28T19:09:19.294Z,97282.54
2022-08-28T19:11:45.119Z,97284.17
2022-08-28T19:14:12.996Z,97276.33
2022-08-28T19:16:40.751Z,97285.53
2022-08-28T19:19:09.009Z,97278.06
2022-08-28T19:21:38.083Z,97293.92
2022-08-28T19:24:05.927Z,97291.98
2022-08-28T19:26:33.605Z,97289.31
2022-08-28T19:29:02.502Z,97284.81
2022-08-28T19:31:30.209Z,97290.17
2022-08-28T19:33:57.991Z,97290.03
2022-08-28T19:36:27.192Z,97295.05
2022-08-28T19:38:55.126Z,97298.66
2022-08-28T19:41:23.711Z,97299.90
2022-08-28T19:43:51.418Z,97302.34
2022-08-28T19:46:20.634Z,97298.46
2022-08-28T19:48:51.223Z,97301.09
2022-08-28T19:51:23.362Z,97305.27
2022-08-28T19:53:57.885Z,97305.13
2022-08-28T19:56:25.458Z,97309.31
2022-08-28T19:58:56.147Z,97302.09
2022-08-28T20:01:24.012Z,97299.96
2022-08-28T20:03:51.992Z,97297.84
2022-08-28T20:06:19.510Z,97296.13
2022-08-28T20:08:47.288Z,97294.40
2022-08-28T20:11:20.948Z,97292.27
2022-08-28T20:13:48.645Z,97298.43
2022-08-28T20:16:16.645Z,97300.08
2022-08-28T20:18:44.921Z,97302.45
2022-08-28T20:21:13.879Z,97305.48
2022-08-28T20:23:41.701Z,97311.84
2022-08-28T20:26:10.154Z,97315.42
2022-08-28T20:28:38.300Z,97321.80
2022-08-28T20:31:17.529Z,97331.30
2022-08-28T20:33:47.932Z,97330.91
2022-08-28T20:36:21.167Z,97333.52
2022-08-28T20:38:48.612Z,97336.30
2022-08-28T20:41:19.769Z,97341.24
2022-08-28T20:43:48.009Z,97342.44
2022-08-28T20:46:16.709Z,97332.03
2022-08-28T20:48:44.809Z,97344.08
2022-08-28T20:51:12.438Z,97339.55
2022-08-28T20:53:40.024Z,97342.73
2022-08-28T20:56:10.113Z,97349.66
2022-08-28T20:58:38.070Z,97345.54
2022-08-28T21:01:06.081Z,97356.20
2022-08-28T21:03:33.935Z,97348.55
2022-08-28T21:06:01.557Z,97353.67
2022-08-28T21:08:29.150Z,97356.06
2022-08-28T21:10:58.367Z,97362.53
2022-08-28T21:13:26.235Z,97359.41
2022-08-28T21:15:54.066Z,97364.52
2022-08-28T21:18:21.935Z,97362.77
2022-08-28T21:20:51.548Z,97362.38
2022-08-28T21:23:19.360Z,97367.12
2022-08-28T21:25:47.889Z,97366.55
2022-08-28T21:28:15.726Z,97365.00
2022-08-28T21:30:43.627Z,97361.30
2022-08-28T21:33:11.635Z,97367.60
2022-08-28T21:35:42.443Z,97365.67
2022-08-28T21:38:10.298Z,97363.70
2022-08-28T21:40:40.789Z,97368.63
2022-08-28T21:43:08.787Z,97359.78
2022-08-28T21:45:36.413Z,97358.45
2022-08-28T21:48:04.301Z,97360.39
2022-08-28T21:50:32.015Z,97368.88
2022-08-28T21:52:59.681Z,97372.23
2022-08-28T21:55:27.665Z,97373.63
2022-08-28T21:57:55.427Z,97367.34
2022-08-28T22:00:23.879Z,97372.86
2022-08-28T22:02:52.098Z,97369.33
2022-08-28T22:05:20.212Z,97371.50
2022-08-28T22:07:47.858Z,97374.66
2022-08-28T22:10:15.199Z,97369.13
2022-08-28T22:12:43.091Z,97372.48
2022-08-28T22:15:10.797Z,97371.70
2022-08-28T22:17:40.255Z,97375.25
2022-08-28T22:20:09.205Z,97366.20
2022-08-28T22:22:55.129Z,97367.80
2022-08-28T22:25:23.093Z,97365.05
2022-08-28T22:27:50.713Z,97367.02
2022-08-28T22:30:19.440Z,97370.97
2022-08-28T22:32:47.340Z,97373.13
2022-08-28T22:35:14.927Z,97373.31
2022-08-28T22:37:42.886Z,97370.78
2022-08-28T22:40:13.469Z,97370.97
2022-08-28T22:42:42.148Z,97378.84
2022-08-28T22:45:10.833Z,97380.98
2022-08-28T22:47:39.163Z,97381.80
2022-08-28T22:50:08.063Z,97386.69
2022-08-28T22:52:36.697Z,97379.21
2022-08-28T22:55:12.475Z,97377.65
2022-08-28T22:57:40.305Z,97384.52
2022-08-28T23:00:16.153Z,97379.21
2022-08-28T23:02:44.270Z,97372.34
2022-08-28T23:05:12.666Z,97373.71
2022-08-28T23:07:40.831Z,97369.02
2022-08-28T23:10:10.329Z,97369.80
2022-08-28T23:12:38.192Z,97367.05
2022-08-28T23:15:13.394Z,97370.19
2022-08-28T23:17:42.889Z,97368.62
2022-08-28T23:20:14.131Z,97375.28
2022-08-28T23:22:41.792Z,97370.98
2022-08-28T23:25:15.081Z,97370.20
2022-08-28T23:27:44.659Z,97381.59
2022-08-28T23:30:15.765Z,97364.30
2022-08-28T23:32:43.707Z,97364.70
2022-08-28T23:35:13.903Z,97365.48
2022-08-28T23:37:43.680Z,97366.45
2022-08-28T23:40:16.574Z,97370.98
2022-08-28T23:42:45.746Z,97369.61
2022-08-28T23:45:17.784Z,97365.88
2022-08-28T23:47:46.375Z,97374.91
2022-08-28T23:50:19.038Z,97373.33
2022-08-28T23:52:48.329Z,97374.86
2022-08-28T23:55:18.587Z,97379.77
2022-08-28T23:57:46.346Z,97381.72
